createdAt,value
2023-04-10T00:01:22.297Z,16.83
2023-04-10T00:04:24.929Z,17.23
2023-04-10T00:07:27.759Z,17.00
2023-04-10T00:10:30.793Z,18.03
2023-04-10T00:13:34.781Z,17.40
2023-04-10T00:16:37.421Z,17.23
2023-04-10T00:19:40.483Z,16.73
2023-04-10T00:22:43.053Z,17.47
2023-04-10T00:25:45.637Z,17.10
2023-04-10T00:28:49.562Z,17.23
2023-04-10T00:31:52.179Z,17.13
2023-04-10T00:34:55.011Z,17.30
2023-04-10T00:37:57.783Z,17.13
2023-04-10T00:41:00.668Z,17.00
2023-04-10T00:44:04.673Z,16.57
2023-04-10T00:47:07.506Z,17.53
2023-04-10T00:50:11.014Z,18.70
2023-04-10T00:53:13.670Z,17.93
2023-04-10T00:56:16.388Z,16.93
2023-04-10T00:59:20.698Z,17.17
2023-04-10T01:02:23.474Z,16.57
2023-04-10T01:05:32.872Z,17.00
2023-04-10T01:08:46.652Z,18.03
2023-04-10T01:11:54.828Z,16.87
2023-04-10T01:15:05.873Z,16.40
2023-04-10T01:18:15.654Z,17.17
2023-04-10T01:21:18.789Z,17.33
2023-04-10T01:24:41.664Z,18.57
2023-04-10T01:27:52.163Z,18.30
2023-04-10T01:31:00.488Z,17.27
2023-04-10T01:34:08.254Z,17.50
2023-04-10T01:37:16.840Z,16.87
2023-04-10T01:40:22.069Z,17.43
2023-04-10T01:43:27.303Z,17.17
2023-04-10T01:46:33.501Z,17.37
2023-04-10T01:49:42.438Z,17.83
2023-04-10T01:52:46.292Z,17.63
2023-04-10T01:55:49.354Z,18.00
2023-04-10T01:58:52.173Z,16.90
2023-04-10T02:01:58.683Z,17.23
2023-04-10T02:05:01.834Z,17.30
2023-04-10T02:08:13.713Z,17.30
2023-04-10T02:11:24.241Z,17.80
2023-04-10T02:14:29.349Z,17.57
2023-04-10T02:17:35.716Z,16.80
2023-04-10T02:20:38.825Z,17.90
2023-04-10T02:23:41.493Z,17.53
2023-04-10T02:26:47.788Z,17.50
2023-04-10T02:29:51.482Z,17.90
2023-04-10T02:32:55.828Z,17.30
2023-04-10T02:35:58.466Z,17.57
2023-04-10T02:39:01.090Z,16.80
2023-04-10T02:42:03.870Z,17.67
2023-04-10T02:45:07.904Z,18.03
2023-04-10T02:48:12.003Z,17.87
2023-04-10T02:51:14.749Z,17.77
2023-04-10T02:54:17.326Z,17.13
2023-04-10T02:57:19.933Z,17.63
2023-04-10T03:00:23.481Z,17.70
2023-04-10T03:03:27.674Z,17.83
2023-04-10T03:06:30.554Z,16.17
2023-04-10T03:09:33.123Z,17.37
2023-04-10T03:12:35.764Z,17.67
2023-04-10T03:15:38.984Z,17.77
2023-04-10T03:18:43.057Z,17.70
2023-04-10T03:21:47.132Z,17.77
2023-04-10T03:24:49.733Z,17.60
2023-04-10T03:27:53.089Z,17.80
2023-04-10T03:30:55.651Z,17.60
2023-04-10T03:33:59.667Z,17.30
2023-04-10T03:37:03.070Z,16.60
2023-04-10T03:40:08.167Z,17.70
2023-04-10T03:43:10.864Z,17.03
2023-04-10T03:46:13.473Z,17.23
2023-04-10T03:49:17.516Z,17.27
2023-04-10T03:52:20.350Z,16.53
2023-04-10T03:55:22.983Z,16.63
2023-04-10T03:58:25.648Z,17.70
2023-04-10T04:01:28.376Z,17.20
2023-04-10T04:04:32.367Z,17.03
2023-04-10T04:07:35.099Z,17.13
2023-04-10T04:10:37.712Z,17.30
2023-04-10T04:13:40.283Z,16.23
2023-04-10T04:16:43.200Z,17.10
2023-04-10T04:19:47.162Z,17.30
2023-04-10T04:22:49.760Z,17.00
2023-04-10T04:25:54.258Z,16.97
2023-04-10T04:28:56.843Z,17.43
2023-04-10T04:31:59.465Z,17.47
2023-04-10T04:35:03.534Z,17.67
2023-04-10T04:38:06.111Z,18.37
2023-04-10T04:41:08.730Z,16.13
2023-04-10T04:44:11.362Z,17.33
2023-04-10T04:47:13.969Z,16.93
2023-04-10T04:50:18.106Z,17.33
2023-04-10T04:53:20.968Z,17.53
2023-04-10T04:56:23.617Z,17.37
2023-04-10T04:59:26.306Z,17.80
2023-04-10T05:02:29.048Z,17.30
2023-04-10T05:05:33.138Z,16.80
2023-04-10T05:08:35.725Z,16.73
2023-04-10T05:11:38.332Z,17.37
2023-04-10T05:14:40.893Z,16.43
2023-04-10T05:17:43.542Z,24.57
2023-04-10T05:20:48.515Z,19.93
2023-04-10T05:23:51.174Z,19.20
2023-04-10T05:26:53.783Z,19.23
2023-04-10T05:29:56.362Z,17.90
2023-04-10T05:32:59.065Z,23.10
2023-04-10T05:36:03.391Z,21.40
2023-04-10T05:39:06.208Z,16.83
2023-04-10T05:42:08.892Z,17.87
2023-04-10T05:45:12.037Z,16.97
2023-04-10T05:48:14.749Z,17.37
2023-04-10T05:51:18.700Z,17.40
2023-04-10T05:54:21.353Z,16.30
2023-04-10T05:57:24.613Z,16.53
2023-04-10T06:00:27.373Z,16.40
2023-04-10T06:03:30.944Z,17.63
2023-04-10T06:06:35.099Z,17.80
2023-04-10T06:09:37.688Z,17.97
2023-04-10T06:12:40.458Z,17.27
2023-04-10T06:15:43.085Z,16.87
2023-04-10T06:18:46.482Z,16.80
2023-04-10T06:21:52.473Z,16.90
2023-04-10T06:24:56.475Z,18.43
2023-04-10T06:27:59.317Z,18.57
2023-04-10T06:31:04.204Z,17.97
2023-04-10T06:34:06.853Z,17.43
2023-04-10T06:37:11.100Z,17.77
2023-04-10T06:40:15.361Z,16.83
2023-04-10T06:43:17.971Z,17.17
2023-04-10T06:46:20.969Z,16.90
2023-04-10T06:49:24.247Z,17.37
2023-04-10T06:52:28.405Z,17.53
2023-04-10T06:55:31.123Z,17.13
2023-04-10T06:58:33.749Z,17.63
2023-04-10T07:01:36.642Z,17.70
2023-04-10T07:04:39.231Z,17.27
2023-04-10T07:07:43.835Z,17.43
2023-04-10T07:10:46.398Z,16.83
2023-04-10T07:13:53.704Z,16.00
2023-04-10T07:16:56.556Z,17.03
2023-04-10T07:19:59.258Z,16.33
2023-04-10T07:23:03.214Z,16.40
2023-04-10T07:26:06.497Z,17.17
2023-04-10T07:29:09.374Z,16.57
2023-04-10T07:32:12.015Z,16.60
2023-04-10T07:35:14.892Z,16.57
2023-04-10T07:38:19.319Z,15.57
2023-04-10T07:41:22.206Z,16.37
2023-04-10T07:44:24.849Z,16.00
2023-04-10T07:47:27.517Z,16.27
2023-04-10T07:50:30.446Z,15.27
2023-04-10T07:53:34.419Z,15.23
2023-04-10T07:56:37.019Z,15.57
2023-04-10T07:59:39.626Z,16.67
2023-04-10T08:02:42.382Z,15.50
2023-04-10T08:05:45.199Z,15.67
2023-04-10T08:08:49.238Z,26.10
2023-04-10T08:11:51.838Z,18.10
2023-04-10T08:14:54.723Z,27.77
2023-04-10T08:17:57.356Z,16.47
2023-04-10T08:21:00.020Z,29.47
2023-04-10T08:24:04.954Z,28.43
2023-04-10T08:27:07.570Z,22.97
2023-04-10T08:30:10.873Z,17.97
2023-04-10T08:33:13.484Z,26.03
2023-04-10T08:36:18.974Z,31.83
2023-04-10T08:39:24.018Z,21.07
2023-04-10T08:42:27.326Z,20.23
2023-04-10T08:45:30.054Z,15.70
2023-04-10T08:48:37.010Z,16.20
2023-04-10T08:51:43.898Z,14.93
2023-04-10T08:54:51.807Z,17.00
2023-04-10T08:58:01.229Z,14.23
2023-04-10T09:01:06.501Z,36.10
2023-04-10T09:04:09.161Z,15.43
2023-04-10T09:07:11.757Z,15.07
2023-04-10T09:10:16.659Z,12.53
2023-04-10T09:13:36.403Z,12.97
2023-04-10T09:16:39.031Z,13.57
2023-04-10T09:19:42.286Z,12.53
2023-04-10T09:22:44.910Z,12.33
2023-04-10T09:25:49.964Z,21.03
2023-04-10T09:29:01.775Z,17.20
2023-04-10T09:32:04.448Z,12.10
2023-04-10T09:35:08.564Z,11.93
2023-04-10T09:38:18.556Z,11.70
2023-04-10T09:41:22.547Z,11.53
2023-04-10T09:44:31.562Z,12.03
2023-04-10T09:47:34.252Z,14.90
2023-04-10T09:50:39.990Z,10.63
2023-04-10T09:53:50.247Z,10.07
2023-04-10T09:56:54.981Z,9.30
2023-04-10T09:59:59.549Z,10.03
2023-04-10T10:03:06.612Z,8.80
2023-04-10T10:06:09.698Z,9.47
2023-04-10T10:09:12.609Z,9.43
2023-04-10T10:12:20.235Z,8.93
2023-04-10T10:15:31.802Z,9.13
2023-04-10T10:18:44.864Z,8.00
2023-04-10T10:21:48.362Z,8.57
2023-04-10T10:24:56.485Z,8.83
2023-04-10T10:28:03.814Z,8.37
2023-04-10T10:31:07.292Z,8.27
2023-04-10T10:34:11.003Z,8.10
2023-04-10T10:37:14.139Z,7.23
2023-04-10T10:40:23.845Z,7.37
2023-04-10T10:43:38.900Z,7.20
2023-04-10T10:46:48.996Z,7.23
2023-04-10T10:49:59.372Z,6.60
2023-04-10T10:53:01.969Z,7.00
2023-04-10T10:56:36.064Z,6.70
2023-04-10T10:59:58.246Z,6.67
2023-04-10T11:03:28.687Z,7.07
2023-04-10T11:06:55.155Z,6.95
2023-04-10T11:09:58.044Z,6.13
2023-04-10T11:13:17.029Z,6.93
2023-04-10T11:16:22.354Z,6.68
2023-04-10T11:19:26.098Z,6.65
2023-04-10T11:22:29.285Z,6.07
2023-04-10T11:25:47.723Z,6.60
2023-04-10T11:28:50.540Z,5.82
2023-04-10T11:31:58.867Z,6.15
2023-04-10T11:35:03.619Z,5.93
2023-04-10T11:38:15.006Z,5.90
2023-04-10T11:41:17.614Z,5.65
2023-04-10T11:44:28.831Z,5.50
2023-04-10T11:47:32.843Z,5.22
2023-04-10T11:50:36.553Z,5.05
2023-04-10T11:53:39.663Z,5.22
2023-04-10T11:56:44.106Z,4.78
2023-04-10T11:59:52.045Z,5.05
2023-04-10T12:02:56.150Z,4.53
2023-04-10T12:05:59.030Z,4.28
2023-04-10T12:09:01.733Z,4.55
2023-04-10T12:12:05.653Z,4.75
2023-04-10T12:15:26.452Z,4.13
2023-04-10T12:18:31.290Z,4.25
2023-04-10T12:21:36.501Z,4.43
2023-04-10T12:24:43.581Z,4.28
2023-04-10T12:27:49.778Z,3.58
2023-04-10T12:30:53.823Z,3.70
2023-04-10T12:33:58.494Z,4.18
2023-04-10T12:37:01.117Z,3.75
2023-04-10T12:40:08.134Z,3.58
2023-04-10T12:43:10.754Z,3.53
2023-04-10T12:46:24.832Z,3.80
2023-04-10T12:49:28.872Z,4.00
2023-04-10T12:52:31.521Z,3.88
2023-04-10T12:55:34.291Z,5.40
2023-04-10T12:58:37.034Z,4.28
2023-04-10T13:01:40.657Z,5.43
2023-04-10T13:04:44.808Z,3.78
2023-04-10T13:07:49.149Z,3.63
2023-04-10T13:10:51.763Z,4.20
2023-04-10T13:13:54.387Z,3.70
2023-04-10T13:16:56.985Z,3.88
2023-04-10T13:20:00.911Z,4.07
2023-04-10T13:23:04.281Z,4.30
2023-04-10T13:26:07.115Z,3.65
2023-04-10T13:29:09.704Z,4.30
2023-04-10T13:32:12.285Z,4.00
2023-04-10T13:35:16.467Z,4.22
2023-04-10T13:38:21.200Z,4.82
2023-04-10T13:41:25.394Z,4.60
2023-04-10T13:44:28.243Z,4.65
2023-04-10T13:47:30.933Z,5.25
2023-04-10T13:50:35.255Z,5.38
2023-04-10T13:53:37.871Z,5.13
2023-04-10T13:56:41.134Z,6.07
2023-04-10T13:59:43.745Z,7.13
2023-04-10T14:02:46.771Z,6.80
2023-04-10T14:05:52.586Z,7.73
2023-04-10T14:08:55.349Z,10.33
2023-04-10T14:11:58.593Z,6.80
2023-04-10T14:15:01.187Z,8.70
2023-04-10T14:18:04.168Z,6.83
2023-04-10T14:21:08.564Z,6.00
2023-04-10T14:24:11.174Z,7.67
2023-04-10T14:27:14.059Z,8.33
2023-04-10T14:30:16.642Z,7.50
2023-04-10T14:33:20.254Z,6.80
2023-04-10T14:36:24.313Z,19.27
2023-04-10T14:39:26.954Z,8.67
2023-04-10T14:42:30.044Z,6.80
2023-04-10T14:45:32.763Z,8.70
2023-04-10T14:48:35.517Z,10.50
2023-04-10T14:51:39.601Z,13.13
2023-04-10T14:54:42.186Z,7.87
2023-04-10T14:57:44.802Z,34.00
2023-04-10T15:00:47.576Z,11.13
2023-04-10T15:03:50.387Z,8.80
2023-04-10T15:06:54.359Z,10.93
2023-04-10T15:09:57.728Z,13.03
2023-04-10T15:13:00.310Z,14.07
2023-04-10T15:16:02.889Z,10.10
2023-04-10T15:19:05.854Z,6.60
2023-04-10T15:22:09.806Z,40.40
2023-04-10T15:25:12.786Z,66.53
2023-04-10T15:28:15.385Z,19.77
2023-04-10T15:31:18.034Z,7.67
2023-04-10T15:34:20.772Z,4.63
2023-04-10T15:37:25.282Z,4.13
2023-04-10T15:40:29.348Z,4.23
2023-04-10T15:43:31.984Z,4.43
2023-04-10T15:46:34.669Z,4.10
2023-04-10T15:49:38.751Z,4.30
2023-04-10T15:52:42.975Z,4.87
2023-04-10T15:55:45.720Z,5.27
2023-04-10T15:58:48.638Z,5.23
2023-04-10T16:01:51.290Z,5.90
2023-04-10T16:04:54.077Z,6.10
2023-04-10T16:07:58.338Z,5.90
2023-04-10T16:11:00.927Z,6.30
2023-04-10T16:14:03.494Z,6.13
2023-04-10T16:17:06.272Z,6.90
2023-04-10T16:20:09.604Z,6.77
2023-04-10T16:23:13.600Z,6.50
2023-04-10T16:26:16.235Z,6.50
2023-04-10T16:29:19.819Z,6.70
2023-04-10T16:32:23.061Z,11.87
2023-04-10T16:35:25.738Z,6.40
2023-04-10T16:38:29.706Z,8.07
2023-04-10T16:41:32.274Z,6.20
2023-04-10T16:44:34.879Z,5.73
2023-04-10T16:47:37.490Z,6.13
2023-04-10T16:50:40.076Z,5.80
2023-04-10T16:53:44.511Z,5.83
2023-04-10T16:56:47.109Z,5.97
2023-04-10T16:59:49.706Z,5.50
2023-04-10T17:02:52.478Z,5.33
2023-04-10T17:05:55.138Z,5.30
2023-04-10T17:08:59.128Z,5.67
2023-04-10T17:12:01.911Z,5.87
2023-04-10T17:15:05.133Z,5.90
2023-04-10T17:18:07.818Z,5.40
2023-04-10T17:21:12.990Z,5.60
2023-04-10T17:24:17.340Z,5.70
2023-04-10T17:27:20.041Z,14.83
2023-04-10T17:30:22.645Z,9.83
2023-04-10T17:33:25.314Z,13.50
2023-04-10T17:36:28.016Z,12.23
2023-04-10T17:39:31.981Z,9.53
2023-04-10T17:42:34.569Z,10.73
2023-04-10T17:45:38.167Z,51.40
2023-04-10T17:48:40.857Z,48.53
2023-04-10T17:51:43.475Z,33.80
2023-04-10T17:54:47.450Z,10.57
2023-04-10T17:57:50.085Z,7.43
2023-04-10T18:00:52.734Z,16.83
2023-04-10T18:03:55.426Z,6.47
2023-04-10T18:06:58.063Z,5.93
2023-04-10T18:10:01.991Z,5.63
2023-04-10T18:13:04.612Z,6.27
2023-04-10T18:16:08.462Z,6.00
2023-04-10T18:19:11.156Z,5.33
2023-04-10T18:22:13.737Z,5.93
2023-04-10T18:25:17.960Z,5.70
2023-04-10T18:28:20.695Z,6.00
2023-04-10T18:31:23.317Z,6.20
2023-04-10T18:34:25.963Z,6.47
2023-04-10T18:37:28.585Z,13.17
2023-04-10T18:40:34.498Z,11.20
2023-04-10T18:43:38.366Z,24.00
2023-04-10T18:46:46.348Z,13.50
2023-04-10T18:49:51.230Z,17.83
2023-04-10T18:52:54.029Z,21.73
2023-04-10T18:55:57.953Z,7.37
2023-04-10T18:59:00.553Z,7.07
2023-04-10T19:02:03.464Z,7.60
2023-04-10T19:05:06.948Z,32.40
2023-04-10T19:08:13.993Z,31.23
2023-04-10T19:11:18.734Z,27.57
2023-04-10T19:14:21.370Z,16.60
2023-04-10T19:17:24.875Z,7.77
2023-04-10T19:20:50.519Z,6.90
2023-04-10T19:23:50.535Z,6.67
2023-04-10T19:26:56.324Z,6.30
2023-04-10T19:29:59.135Z,6.30
2023-04-10T19:33:01.838Z,7.00
2023-04-10T19:36:06.862Z,6.97
2023-04-10T19:39:10.747Z,6.40
2023-04-10T19:42:14.737Z,6.90
2023-04-10T19:45:17.353Z,6.53
2023-04-10T19:48:20.134Z,6.90
2023-04-10T19:51:22.781Z,6.73
2023-04-10T19:54:25.564Z,7.00
2023-04-10T19:57:29.534Z,6.50
2023-04-10T20:00:32.359Z,6.73
2023-04-10T20:03:36.355Z,6.17
2023-04-10T20:06:39.202Z,6.43
2023-04-10T20:09:41.801Z,7.00
2023-04-10T20:12:45.742Z,7.10
2023-04-10T20:15:48.657Z,6.57
2023-04-10T20:18:52.186Z,6.70
2023-04-10T20:21:55.058Z,6.87
2023-04-10T20:24:57.725Z,6.50
2023-04-10T20:28:01.642Z,6.10
2023-04-10T20:31:04.328Z,6.40
2023-04-10T20:34:06.954Z,6.17
2023-04-10T20:37:09.630Z,6.40
2023-04-10T20:40:12.592Z,6.97
2023-04-10T20:43:18.549Z,16.47
2023-04-10T20:46:21.456Z,11.57
2023-04-10T20:49:25.105Z,15.07
2023-04-10T20:52:27.724Z,7.50
2023-04-10T20:55:30.451Z,26.03
2023-04-10T20:58:34.430Z,10.90
2023-04-10T21:01:37.170Z,8.03
2023-04-10T21:04:39.946Z,5.90
2023-04-10T21:07:42.526Z,5.60
2023-04-10T21:10:45.813Z,5.90
2023-04-10T21:13:49.879Z,5.20
2023-04-10T21:16:52.561Z,4.93
2023-04-10T21:19:55.250Z,5.63
2023-04-10T21:22:58.016Z,5.53
2023-04-10T21:26:01.501Z,5.30
2023-04-10T21:29:05.517Z,5.33
2023-04-10T21:32:08.244Z,4.87
2023-04-10T21:35:11.136Z,4.80
2023-04-10T21:38:13.746Z,5.00
2023-04-10T21:41:16.361Z,5.27
2023-04-10T21:44:21.002Z,4.90
2023-04-10T21:47:23.578Z,5.33
2023-04-10T21:50:26.300Z,4.90
2023-04-10T21:53:28.904Z,5.10
2023-04-10T21:56:31.474Z,4.70
2023-04-10T21:59:35.741Z,5.00
2023-04-10T22:02:38.431Z,4.90
2023-04-10T22:05:41.289Z,4.30
2023-04-10T22:08:44.573Z,4.57
2023-04-10T22:11:47.195Z,4.10
2023-04-10T22:14:52.052Z,3.70
2023-04-10T22:17:54.633Z,3.47
2023-04-10T22:20:57.245Z,3.87
2023-04-10T22:23:59.852Z,3.93
2023-04-10T22:27:02.456Z,4.07
2023-04-10T22:30:09.603Z,3.90
2023-04-10T22:33:12.787Z,4.53
2023-04-10T22:36:15.382Z,3.43
2023-04-10T22:39:17.982Z,5.90
2023-04-10T22:42:20.569Z,4.13
2023-04-10T22:45:24.495Z,3.77
2023-04-10T22:48:27.102Z,3.93
2023-04-10T22:51:29.838Z,4.03
2023-04-10T22:54:32.483Z,3.80
2023-04-10T22:57:35.244Z,4.00
2023-04-10T23:00:39.202Z,3.77
2023-04-10T23:03:41.906Z,3.90
2023-04-10T23:06:44.485Z,3.60
2023-04-10T23:09:47.065Z,3.90
2023-04-10T23:12:49.708Z,4.40
2023-04-10T23:15:55.026Z,3.90
2023-04-10T23:18:57.660Z,3.90
2023-04-10T23:22:00.423Z,4.00
2023-04-10T23:25:02.994Z,4.00
2023-04-10T23:28:06.012Z,3.93
2023-04-10T23:31:10.331Z,3.93
2023-04-10T23:34:12.976Z,3.53
2023-04-10T23:37:15.566Z,4.37
2023-04-10T23:40:19.000Z,4.20
2023-04-10T23:43:21.640Z,3.73
2023-04-10T23:46:25.631Z,4.10
2023-04-10T23:49:28.266Z,3.70
2023-04-10T23:52:30.876Z,4.00
2023-04-10T23:55:33.449Z,3.73
2023-04-10T23:58:36.047Z,3.90
